Kevin, Montana
Current Conditions -  °F | °C
As of 3:56 AM on Friday 31 Oct 2014 (Local Time) from KCTB Reporting Station
Haze Haze  
Wind Chill: 26°   Ceiling: Unl
Heat Index: 32°   Visibility: 5mi
Dew Point: 30°   Wind: 7mph
Humidity: 92%   Direction: 70°ENE
Pressure: 29.9"   Gusts: NA
Location:  48.75°N, 111.97°W
Report Text: KCTB 310956Z AUTO 07006KT 5SM BR CLR 00/M01 A2990 RMK AO2 SLP137 T00001011
Loading
Personal Weather Stations






























Interactive Weather Map
Tropical Storm Tracking
New forecast layout! Learn more

10-Day Weather Forecast

Advertisements
Track Severe Weather on mobile